sensor_id;sensor_type;location;lat;lon;timestamp;P1;durP1;ratioP1;P2;durP2;ratioP2
14554;SDS011;7364;50.870;4.722;2023-12-07T00:01:28;26.60;;;14.57;;
14554;SDS011;7364;50.870;4.722;2023-12-07T00:03:55;22.47;;;15.40;;
14554;SDS011;7364;50.870;4.722;2023-12-07T00:06:23;24.47;;;16.23;;
14554;SDS011;7364;50.870;4.722;2023-12-07T00:08:51;29.43;;;15.00;;
14554;SDS011;7364;50.870;4.722;2023-12-07T00:11:21;21.47;;;14.40;;
14554;SDS011;7364;50.870;4.722;2023-12-07T00:13:49;23.37;;;16.03;;
14554;SDS011;7364;50.870;4.722;2023-12-07T00:16:16;27.17;;;15.77;;
14554;SDS011;7364;50.870;4.722;2023-12-07T00:18:43;26.03;;;15.30;;
14554;SDS011;7364;50.870;4.722;2023-12-07T00:21:10;23.90;;;13.67;;
14554;SDS011;7364;50.870;4.722;2023-12-07T00:23:37;24.20;;;14.77;;
14554;SDS011;7364;50.870;4.722;2023-12-07T00:26:06;20.00;;;13.43;;
14554;SDS011;7364;50.870;4.722;2023-12-07T00:28:33;24.50;;;15.57;;
14554;SDS011;7364;50.870;4.722;2023-12-07T00:31:00;23.43;;;15.17;;
14554;SDS011;7364;50.870;4.722;2023-12-07T00:33:28;24.00;;;15.40;;
14554;SDS011;7364;50.870;4.722;2023-12-07T00:35:55;24.50;;;14.20;;
14554;SDS011;7364;50.870;4.722;2023-12-07T00:38:22;26.47;;;15.53;;
14554;SDS011;7364;50.870;4.722;2023-12-07T00:40:49;28.77;;;15.20;;
14554;SDS011;7364;50.870;4.722;2023-12-07T00:43:18;20.97;;;14.37;;
14554;SDS011;7364;50.870;4.722;2023-12-07T00:45:45;24.70;;;15.47;;
14554;SDS011;7364;50.870;4.722;2023-12-07T00:48:12;28.37;;;16.37;;
14554;SDS011;7364;50.870;4.722;2023-12-07T00:50:39;26.57;;;16.90;;
14554;SDS011;7364;50.870;4.722;2023-12-07T00:53:06;28.83;;;16.23;;
14554;SDS011;7364;50.870;4.722;2023-12-07T00:55:34;25.97;;;15.33;;
14554;SDS011;7364;50.870;4.722;2023-12-07T00:58:01;22.10;;;14.93;;
14554;SDS011;7364;50.870;4.722;2023-12-07T01:00:29;19.03;;;14.33;;
14554;SDS011;7364;50.870;4.722;2023-12-07T01:02:56;25.10;;;15.20;;
14554;SDS011;7364;50.870;4.722;2023-12-07T01:05:23;26.70;;;15.07;;
14554;SDS011;7364;50.870;4.722;2023-12-07T01:07:50;22.83;;;14.87;;
14554;SDS011;7364;50.870;4.722;2023-12-07T01:10:18;24.17;;;14.03;;
14554;SDS011;7364;50.870;4.722;2023-12-07T01:12:45;27.27;;;17.10;;
14554;SDS011;7364;50.870;4.722;2023-12-07T01:15:12;25.27;;;14.10;;
14554;SDS011;7364;50.870;4.722;2023-12-07T01:17:40;24.43;;;14.87;;
14554;SDS011;7364;50.870;4.722;2023-12-07T01:20:08;21.23;;;14.40;;
14554;SDS011;7364;50.870;4.722;2023-12-07T01:22:38;25.40;;;16.33;;
14554;SDS011;7364;50.870;4.722;2023-12-07T01:25:06;26.77;;;16.13;;
14554;SDS011;7364;50.870;4.722;2023-12-07T01:27:34;28.13;;;16.67;;
14554;SDS011;7364;50.870;4.722;2023-12-07T01:30:02;29.40;;;16.70;;
14554;SDS011;7364;50.870;4.722;2023-12-07T01:32:30;25.67;;;15.67;;
14554;SDS011;7364;50.870;4.722;2023-12-07T01:34:58;27.83;;;17.07;;
14554;SDS011;7364;50.870;4.722;2023-12-07T01:37:25;25.70;;;17.43;;
14554;SDS011;7364;50.870;4.722;2023-12-07T01:39:54;30.40;;;18.20;;
14554;SDS011;7364;50.870;4.722;2023-12-07T01:42:21;31.67;;;18.50;;
14554;SDS011;7364;50.870;4.722;2023-12-07T01:44:48;25.10;;;16.33;;
14554;SDS011;7364;50.870;4.722;2023-12-07T01:47:16;28.63;;;16.90;;
14554;SDS011;7364;50.870;4.722;2023-12-07T01:49:43;31.23;;;18.97;;
14554;SDS011;7364;50.870;4.722;2023-12-07T01:52:11;25.30;;;16.73;;
14554;SDS011;7364;50.870;4.722;2023-12-07T01:54:39;30.50;;;18.90;;
14554;SDS011;7364;50.870;4.722;2023-12-07T01:57:06;31.67;;;18.53;;
14554;SDS011;7364;50.870;4.722;2023-12-07T01:59:34;32.70;;;19.73;;
14554;SDS011;7364;50.870;4.722;2023-12-07T02:02:02;36.23;;;19.70;;
14554;SDS011;7364;50.870;4.722;2023-12-07T02:04:29;33.00;;;20.43;;
14554;SDS011;7364;50.870;4.722;2023-12-07T02:06:57;34.77;;;20.27;;
14554;SDS011;7364;50.870;4.722;2023-12-07T02:09:27;46.70;;;21.43;;
14554;SDS011;7364;50.870;4.722;2023-12-07T02:11:55;34.00;;;20.40;;
14554;SDS011;7364;50.870;4.722;2023-12-07T02:14:23;32.57;;;20.10;;
14554;SDS011;7364;50.870;4.722;2023-12-07T02:16:51;29.17;;;19.30;;
14554;SDS011;7364;50.870;4.722;2023-12-07T02:19:27;25.67;;;18.93;;
14554;SDS011;7364;50.870;4.722;2023-12-07T02:22:14;38.87;;;21.27;;
14554;SDS011;7364;50.870;4.722;2023-12-07T02:24:52;31.50;;;19.40;;
14554;SDS011;7364;50.870;4.722;2023-12-07T02:27:35;33.57;;;21.03;;
14554;SDS011;7364;50.870;4.722;2023-12-07T02:30:04;31.80;;;18.13;;
14554;SDS011;7364;50.870;4.722;2023-12-07T02:32:33;29.43;;;18.37;;
14554;SDS011;7364;50.870;4.722;2023-12-07T02:35:01;26.93;;;17.07;;
14554;SDS011;7364;50.870;4.722;2023-12-07T02:37:28;30.13;;;19.40;;
14554;SDS011;7364;50.870;4.722;2023-12-07T02:40:03;24.60;;;17.97;;
14554;SDS011;7364;50.870;4.722;2023-12-07T02:42:36;32.33;;;18.07;;
14554;SDS011;7364;50.870;4.722;2023-12-07T02:45:06;28.73;;;19.13;;
14554;SDS011;7364;50.870;4.722;2023-12-07T02:47:34;28.73;;;18.97;;
14554;SDS011;7364;50.870;4.722;2023-12-07T02:50:02;28.37;;;19.33;;
14554;SDS011;7364;50.870;4.722;2023-12-07T02:52:30;29.93;;;16.83;;
14554;SDS011;7364;50.870;4.722;2023-12-07T02:54:58;29.47;;;18.23;;
14554;SDS011;7364;50.870;4.722;2023-12-07T02:57:25;23.07;;;15.87;;
14554;SDS011;7364;50.870;4.722;2023-12-07T02:59:53;25.80;;;15.47;;
14554;SDS011;7364;50.870;4.722;2023-12-07T03:02:21;23.90;;;15.27;;
14554;SDS011;7364;50.870;4.722;2023-12-07T03:04:48;26.97;;;15.20;;
14554;SDS011;7364;50.870;4.722;2023-12-07T03:07:15;26.10;;;15.70;;
14554;SDS011;7364;50.870;4.722;2023-12-07T03:09:42;25.53;;;16.10;;
14554;SDS011;7364;50.870;4.722;2023-12-07T03:12:09;26.20;;;15.63;;
14554;SDS011;7364;50.870;4.722;2023-12-07T03:14:36;24.03;;;15.10;;
14554;SDS011;7364;50.870;4.722;2023-12-07T03:17:05;20.63;;;15.83;;
14554;SDS011;7364;50.870;4.722;2023-12-07T03:19:32;25.47;;;16.70;;
14554;SDS011;7364;50.870;4.722;2023-12-07T03:22:04;24.37;;;15.23;;
14554;SDS011;7364;50.870;4.722;2023-12-07T03:24:31;28.73;;;17.90;;
14554;SDS011;7364;50.870;4.722;2023-12-07T03:26:59;21.63;;;13.97;;
14554;SDS011;7364;50.870;4.722;2023-12-07T03:29:26;22.97;;;14.50;;
14554;SDS011;7364;50.870;4.722;2023-12-07T03:31:53;18.60;;;13.43;;
14554;SDS011;7364;50.870;4.722;2023-12-07T03:34:22;22.30;;;13.70;;
14554;SDS011;7364;50.870;4.722;2023-12-07T03:36:49;22.97;;;14.40;;
14554;SDS011;7364;50.870;4.722;2023-12-07T03:39:17;22.37;;;13.40;;
14554;SDS011;7364;50.870;4.722;2023-12-07T03:41:46;19.50;;;13.50;;
14554;SDS011;7364;50.870;4.722;2023-12-07T03:44:14;22.87;;;14.10;;
14554;SDS011;7364;50.870;4.722;2023-12-07T03:46:41;22.13;;;14.73;;
14554;SDS011;7364;50.870;4.722;2023-12-07T03:49:08;19.37;;;14.17;;
14554;SDS011;7364;50.870;4.722;2023-12-07T03:51:37;29.10;;;14.57;;
14554;SDS011;7364;50.870;4.722;2023-12-07T03:54:04;24.50;;;15.07;;
14554;SDS011;7364;50.870;4.722;2023-12-07T03:56:32;21.37;;;14.47;;
14554;SDS011;7364;50.870;4.722;2023-12-07T03:59:00;20.03;;;13.90;;
14554;SDS011;7364;50.870;4.722;2023-12-07T04:01:28;21.67;;;14.50;;
14554;SDS011;7364;50.870;4.722;2023-12-07T04:03:56;21.63;;;14.20;;
14554;SDS011;7364;50.870;4.722;2023-12-07T04:06:24;29.53;;;15.97;;
14554;SDS011;7364;50.870;4.722;2023-12-07T04:08:53;21.00;;;15.77;;
14554;SDS011;7364;50.870;4.722;2023-12-07T04:11:20;22.57;;;14.63;;
14554;SDS011;7364;50.870;4.722;2023-12-07T04:13:48;28.10;;;16.93;;
14554;SDS011;7364;50.870;4.722;2023-12-07T04:16:15;24.23;;;15.80;;
14554;SDS011;7364;50.870;4.722;2023-12-07T04:18:42;26.47;;;17.23;;
14554;SDS011;7364;50.870;4.722;2023-12-07T04:21:10;23.20;;;16.43;;
14554;SDS011;7364;50.870;4.722;2023-12-07T04:23:37;25.73;;;15.60;;
14554;SDS011;7364;50.870;4.722;2023-12-07T04:26:06;27.63;;;17.07;;
14554;SDS011;7364;50.870;4.722;2023-12-07T04:28:33;20.60;;;15.50;;
14554;SDS011;7364;50.870;4.722;2023-12-07T04:31:00;21.03;;;15.10;;
14554;SDS011;7364;50.870;4.722;2023-12-07T04:33:27;23.03;;;15.40;;
14554;SDS011;7364;50.870;4.722;2023-12-07T04:35:55;22.77;;;13.80;;
14554;SDS011;7364;50.870;4.722;2023-12-07T04:38:22;19.13;;;14.10;;
14554;SDS011;7364;50.870;4.722;2023-12-07T04:40:49;21.43;;;13.63;;
14554;SDS011;7364;50.870;4.722;2023-12-07T04:43:17;21.43;;;14.77;;
14554;SDS011;7364;50.870;4.722;2023-12-07T04:45:45;20.13;;;14.17;;
14554;SDS011;7364;50.870;4.722;2023-12-07T04:48:12;18.50;;;12.70;;
14554;SDS011;7364;50.870;4.722;2023-12-07T04:50:39;26.47;;;14.20;;
14554;SDS011;7364;50.870;4.722;2023-12-07T04:53:06;17.70;;;12.67;;
14554;SDS011;7364;50.870;4.722;2023-12-07T04:55:34;17.87;;;11.57;;
14554;SDS011;7364;50.870;4.722;2023-12-07T04:58:01;19.90;;;12.33;;
14554;SDS011;7364;50.870;4.722;2023-12-07T05:00:29;20.67;;;12.03;;
14554;SDS011;7364;50.870;4.722;2023-12-07T05:02:56;17.13;;;11.30;;
14554;SDS011;7364;50.870;4.722;2023-12-07T05:05:24;17.67;;;12.27;;
14554;SDS011;7364;50.870;4.722;2023-12-07T05:07:51;17.40;;;11.83;;
14554;SDS011;7364;50.870;4.722;2023-12-07T05:10:18;16.33;;;10.80;;
14554;SDS011;7364;50.870;4.722;2023-12-07T05:12:45;22.50;;;11.20;;
14554;SDS011;7364;50.870;4.722;2023-12-07T05:15:12;13.10;;;10.60;;
14554;SDS011;7364;50.870;4.722;2023-12-07T05:17:41;15.60;;;10.73;;
14554;SDS011;7364;50.870;4.722;2023-12-07T05:20:09;15.03;;;9.97;;
14554;SDS011;7364;50.870;4.722;2023-12-07T05:22:37;16.17;;;10.90;;
14554;SDS011;7364;50.870;4.722;2023-12-07T05:25:05;14.03;;;10.30;;
14554;SDS011;7364;50.870;4.722;2023-12-07T05:27:33;14.93;;;10.93;;
14554;SDS011;7364;50.870;4.722;2023-12-07T05:30:01;10.80;;;9.47;;
14554;SDS011;7364;50.870;4.722;2023-12-07T05:32:28;12.40;;;9.73;;
14554;SDS011;7364;50.870;4.722;2023-12-07T05:34:56;13.93;;;10.40;;
14554;SDS011;7364;50.870;4.722;2023-12-07T05:37:24;15.90;;;9.90;;
14554;SDS011;7364;50.870;4.722;2023-12-07T05:39:51;14.37;;;10.17;;
14554;SDS011;7364;50.870;4.722;2023-12-07T05:42:18;14.23;;;9.07;;
14554;SDS011;7364;50.870;4.722;2023-12-07T05:44:45;12.83;;;9.40;;
14554;SDS011;7364;50.870;4.722;2023-12-07T05:47:12;12.87;;;8.97;;
14554;SDS011;7364;50.870;4.722;2023-12-07T05:49:40;18.30;;;10.43;;
14554;SDS011;7364;50.870;4.722;2023-12-07T05:52:08;13.90;;;9.10;;
14554;SDS011;7364;50.870;4.722;2023-12-07T05:54:35;15.93;;;10.03;;
14554;SDS011;7364;50.870;4.722;2023-12-07T05:57:03;12.50;;;9.30;;
14554;SDS011;7364;50.870;4.722;2023-12-07T05:59:31;18.97;;;9.60;;
14554;SDS011;7364;50.870;4.722;2023-12-07T06:01:58;14.93;;;9.27;;
14554;SDS011;7364;50.870;4.722;2023-12-07T06:04:25;14.60;;;10.07;;
14554;SDS011;7364;50.870;4.722;2023-12-07T06:06:52;12.60;;;8.47;;
14554;SDS011;7364;50.870;4.722;2023-12-07T06:09:21;17.73;;;10.13;;
14554;SDS011;7364;50.870;4.722;2023-12-07T06:11:48;16.73;;;10.23;;
14554;SDS011;7364;50.870;4.722;2023-12-07T06:14:16;16.97;;;9.20;;
14554;SDS011;7364;50.870;4.722;2023-12-07T06:16:43;15.07;;;10.10;;
14554;SDS011;7364;50.870;4.722;2023-12-07T06:19:10;12.60;;;10.13;;
14554;SDS011;7364;50.870;4.722;2023-12-07T06:21:37;14.40;;;10.00;;
14554;SDS011;7364;50.870;4.722;2023-12-07T06:24:05;12.63;;;9.73;;
14554;SDS011;7364;50.870;4.722;2023-12-07T06:26:34;14.87;;;9.83;;
14554;SDS011;7364;50.870;4.722;2023-12-07T06:29:01;13.07;;;8.67;;
14554;SDS011;7364;50.870;4.722;2023-12-07T06:31:28;13.57;;;9.70;;
14554;SDS011;7364;50.870;4.722;2023-12-07T06:33:56;13.20;;;10.20;;
14554;SDS011;7364;50.870;4.722;2023-12-07T06:36:25;12.67;;;10.47;;
14554;SDS011;7364;50.870;4.722;2023-12-07T06:38:52;12.63;;;8.23;;
14554;SDS011;7364;50.870;4.722;2023-12-07T06:41:21;13.37;;;10.17;;
14554;SDS011;7364;50.870;4.722;2023-12-07T06:43:49;13.47;;;10.17;;
14554;SDS011;7364;50.870;4.722;2023-12-07T06:46:17;16.40;;;10.53;;
14554;SDS011;7364;50.870;4.722;2023-12-07T06:48:44;17.33;;;11.07;;
14554;SDS011;7364;50.870;4.722;2023-12-07T06:51:11;16.23;;;11.00;;
14554;SDS011;7364;50.870;4.722;2023-12-07T06:53:39;15.07;;;10.20;;
14554;SDS011;7364;50.870;4.722;2023-12-07T06:56:07;14.90;;;9.67;;
14554;SDS011;7364;50.870;4.722;2023-12-07T06:58:34;15.60;;;9.87;;
14554;SDS011;7364;50.870;4.722;2023-12-07T07:01:03;16.33;;;10.77;;
14554;SDS011;7364;50.870;4.722;2023-12-07T07:03:30;13.33;;;10.40;;
14554;SDS011;7364;50.870;4.722;2023-12-07T07:05:58;12.70;;;9.73;;
14554;SDS011;7364;50.870;4.722;2023-12-07T07:08:25;13.90;;;9.60;;
14554;SDS011;7364;50.870;4.722;2023-12-07T07:10:52;14.47;;;10.93;;
14554;SDS011;7364;50.870;4.722;2023-12-07T07:13:20;16.07;;;9.83;;
14554;SDS011;7364;50.870;4.722;2023-12-07T07:15:50;14.43;;;10.13;;
14554;SDS011;7364;50.870;4.722;2023-12-07T07:18:18;14.13;;;10.00;;
14554;SDS011;7364;50.870;4.722;2023-12-07T07:20:49;20.00;;;10.13;;
14554;SDS011;7364;50.870;4.722;2023-12-07T07:23:16;13.70;;;9.90;;
14554;SDS011;7364;50.870;4.722;2023-12-07T07:25:43;15.67;;;10.50;;
14554;SDS011;7364;50.870;4.722;2023-12-07T07:28:10;14.57;;;10.83;;
14554;SDS011;7364;50.870;4.722;2023-12-07T07:30:38;23.13;;;12.10;;
14554;SDS011;7364;50.870;4.722;2023-12-07T07:33:05;16.83;;;11.90;;
14554;SDS011;7364;50.870;4.722;2023-12-07T07:35:34;15.30;;;11.07;;
14554;SDS011;7364;50.870;4.722;2023-12-07T07:38:01;16.20;;;11.10;;
14554;SDS011;7364;50.870;4.722;2023-12-07T07:40:28;19.10;;;10.47;;
14554;SDS011;7364;50.870;4.722;2023-12-07T07:42:55;19.70;;;10.97;;
14554;SDS011;7364;50.870;4.722;2023-12-07T07:45:22;13.93;;;11.43;;
14554;SDS011;7364;50.870;4.722;2023-12-07T07:47:50;13.20;;;10.23;;
14554;SDS011;7364;50.870;4.722;2023-12-07T07:50:17;20.53;;;11.40;;
14554;SDS011;7364;50.870;4.722;2023-12-07T07:52:46;15.10;;;10.80;;
14554;SDS011;7364;50.870;4.722;2023-12-07T07:55:13;12.97;;;9.73;;
14554;SDS011;7364;50.870;4.722;2023-12-07T07:57:40;16.60;;;10.87;;
14554;SDS011;7364;50.870;4.722;2023-12-07T08:00:08;14.53;;;9.80;;
14554;SDS011;7364;50.870;4.722;2023-12-07T08:02:38;15.43;;;10.67;;
14554;SDS011;7364;50.870;4.722;2023-12-07T08:05:05;15.47;;;10.60;;
14554;SDS011;7364;50.870;4.722;2023-12-07T08:07:33;18.20;;;10.60;;
14554;SDS011;7364;50.870;4.722;2023-12-07T08:10:01;15.60;;;10.63;;
14554;SDS011;7364;50.870;4.722;2023-12-07T08:12:29;16.53;;;11.17;;
14554;SDS011;7364;50.870;4.722;2023-12-07T08:14:57;16.83;;;10.77;;
14554;SDS011;7364;50.870;4.722;2023-12-07T08:17:24;15.20;;;10.17;;
14554;SDS011;7364;50.870;4.722;2023-12-07T08:19:52;14.83;;;11.00;;
14554;SDS011;7364;50.870;4.722;2023-12-07T08:22:19;19.73;;;12.77;;
14554;SDS011;7364;50.870;4.722;2023-12-07T08:24:46;16.00;;;11.87;;
14554;SDS011;7364;50.870;4.722;2023-12-07T08:27:15;25.20;;;11.77;;
14554;SDS011;7364;50.870;4.722;2023-12-07T08:29:42;19.17;;;12.43;;
14554;SDS011;7364;50.870;4.722;2023-12-07T08:32:09;16.40;;;12.57;;
14554;SDS011;7364;50.870;4.722;2023-12-07T08:34:36;15.80;;;10.80;;
14554;SDS011;7364;50.870;4.722;2023-12-07T08:37:04;20.77;;;11.20;;
14554;SDS011;7364;50.870;4.722;2023-12-07T08:39:31;18.07;;;11.90;;
14554;SDS011;7364;50.870;4.722;2023-12-07T08:41:58;15.30;;;11.27;;
14554;SDS011;7364;50.870;4.722;2023-12-07T08:44:27;21.47;;;11.20;;
14554;SDS011;7364;50.870;4.722;2023-12-07T08:46:54;19.53;;;10.17;;
14554;SDS011;7364;50.870;4.722;2023-12-07T08:49:21;15.23;;;11.23;;
14554;SDS011;7364;50.870;4.722;2023-12-07T08:51:49;17.03;;;11.50;;
14554;SDS011;7364;50.870;4.722;2023-12-07T08:54:16;17.87;;;10.90;;
14554;SDS011;7364;50.870;4.722;2023-12-07T08:56:43;12.57;;;9.20;;
14554;SDS011;7364;50.870;4.722;2023-12-07T08:59:11;17.97;;;10.50;;
14554;SDS011;7364;50.870;4.722;2023-12-07T09:01:39;15.50;;;8.67;;
14554;SDS011;7364;50.870;4.722;2023-12-07T09:04:06;12.67;;;9.33;;
14554;SDS011;7364;50.870;4.722;2023-12-07T09:06:34;10.13;;;8.20;;
14554;SDS011;7364;50.870;4.722;2023-12-07T09:09:03;12.93;;;8.67;;
14554;SDS011;7364;50.870;4.722;2023-12-07T09:11:30;12.63;;;9.30;;
14554;SDS011;7364;50.870;4.722;2023-12-07T09:13:58;9.13;;;7.40;;
14554;SDS011;7364;50.870;4.722;2023-12-07T09:16:26;13.17;;;8.73;;
14554;SDS011;7364;50.870;4.722;2023-12-07T09:18:54;14.87;;;9.07;;
14554;SDS011;7364;50.870;4.722;2023-12-07T09:21:21;12.43;;;8.60;;
14554;SDS011;7364;50.870;4.722;2023-12-07T09:23:48;10.73;;;7.53;;
14554;SDS011;7364;50.870;4.722;2023-12-07T09:26:16;13.53;;;8.27;;
14554;SDS011;7364;50.870;4.722;2023-12-07T09:28:43;14.73;;;8.83;;
14554;SDS011;7364;50.870;4.722;2023-12-07T09:31:10;14.13;;;7.77;;
14554;SDS011;7364;50.870;4.722;2023-12-07T09:33:38;11.87;;;8.37;;
14554;SDS011;7364;50.870;4.722;2023-12-07T09:36:07;11.70;;;7.73;;
14554;SDS011;7364;50.870;4.722;2023-12-07T09:38:36;11.03;;;8.27;;
14554;SDS011;7364;50.870;4.722;2023-12-07T09:41:04;12.47;;;8.93;;
14554;SDS011;7364;50.870;4.722;2023-12-07T09:43:31;12.23;;;8.47;;
14554;SDS011;7364;50.870;4.722;2023-12-07T09:45:58;15.00;;;8.90;;
14554;SDS011;7364;50.870;4.722;2023-12-07T09:48:26;17.87;;;8.57;;
14554;SDS011;7364;50.870;4.722;2023-12-07T09:50:55;12.60;;;7.53;;
14554;SDS011;7364;50.870;4.722;2023-12-07T09:53:24;14.60;;;8.77;;
14554;SDS011;7364;50.870;4.722;2023-12-07T09:55:52;16.97;;;9.00;;
14554;SDS011;7364;50.870;4.722;2023-12-07T09:58:19;9.30;;;8.03;;
14554;SDS011;7364;50.870;4.722;2023-12-07T10:00:46;16.60;;;7.17;;
14554;SDS011;7364;50.870;4.722;2023-12-07T10:03:19;12.33;;;8.40;;
14554;SDS011;7364;50.870;4.722;2023-12-07T10:05:53;11.57;;;8.00;;
14554;SDS011;7364;50.870;4.722;2023-12-07T10:08:29;11.83;;;8.07;;
14554;SDS011;7364;50.870;4.722;2023-12-07T10:11:04;13.40;;;8.47;;
14554;SDS011;7364;50.870;4.722;2023-12-07T10:13:33;10.07;;;7.77;;
14554;SDS011;7364;50.870;4.722;2023-12-07T10:16:05;12.63;;;7.70;;
14554;SDS011;7364;50.870;4.722;2023-12-07T10:18:34;12.83;;;7.10;;
14554;SDS011;7364;50.870;4.722;2023-12-07T10:21:02;9.70;;;7.00;;
14554;SDS011;7364;50.870;4.722;2023-12-07T10:23:31;10.23;;;6.83;;
14554;SDS011;7364;50.870;4.722;2023-12-07T10:25:58;15.57;;;7.13;;
14554;SDS011;7364;50.870;4.722;2023-12-07T10:28:26;9.63;;;6.87;;
14554;SDS011;7364;50.870;4.722;2023-12-07T10:30:53;8.17;;;6.63;;
14554;SDS011;7364;50.870;4.722;2023-12-07T10:33:20;13.77;;;7.50;;
14554;SDS011;7364;50.870;4.722;2023-12-07T10:35:47;10.40;;;6.27;;
14554;SDS011;7364;50.870;4.722;2023-12-07T10:38:15;9.40;;;7.13;;
14554;SDS011;7364;50.870;4.722;2023-12-07T10:40:45;8.03;;;5.57;;
14554;SDS011;7364;50.870;4.722;2023-12-07T10:43:13;7.77;;;6.00;;
14554;SDS011;7364;50.870;4.722;2023-12-07T10:45:46;14.57;;;7.40;;
14554;SDS011;7364;50.870;4.722;2023-12-07T10:48:14;8.70;;;6.27;;
14554;SDS011;7364;50.870;4.722;2023-12-07T10:50:45;8.60;;;6.30;;
14554;SDS011;7364;50.870;4.722;2023-12-07T10:53:19;10.83;;;6.33;;
14554;SDS011;7364;50.870;4.722;2023-12-07T10:55:55;9.37;;;6.40;;
14554;SDS011;7364;50.870;4.722;2023-12-07T10:58:25;6.60;;;5.80;;
14554;SDS011;7364;50.870;4.722;2023-12-07T11:00:53;10.57;;;6.63;;
14554;SDS011;7364;50.870;4.722;2023-12-07T11:03:21;10.97;;;7.37;;
14554;SDS011;7364;50.870;4.722;2023-12-07T11:05:48;9.00;;;6.10;;
14554;SDS011;7364;50.870;4.722;2023-12-07T11:08:18;7.90;;;6.70;;
14554;SDS011;7364;50.870;4.722;2023-12-07T11:10:58;9.53;;;6.17;;
14554;SDS011;7364;50.870;4.722;2023-12-07T11:13:31;7.87;;;6.10;;
14554;SDS011;7364;50.870;4.722;2023-12-07T11:16:02;10.37;;;6.37;;
14554;SDS011;7364;50.870;4.722;2023-12-07T11:18:30;9.17;;;7.60;;
14554;SDS011;7364;50.870;4.722;2023-12-07T11:20:57;18.07;;;7.03;;
14554;SDS011;7364;50.870;4.722;2023-12-07T11:23:26;9.67;;;6.43;;
14554;SDS011;7364;50.870;4.722;2023-12-07T11:25:55;10.03;;;6.10;;
14554;SDS011;7364;50.870;4.722;2023-12-07T11:28:34;9.93;;;6.37;;
14554;SDS011;7364;50.870;4.722;2023-12-07T11:31:02;13.93;;;6.37;;
14554;SDS011;7364;50.870;4.722;2023-12-07T11:33:30;10.20;;;5.53;;
14554;SDS011;7364;50.870;4.722;2023-12-07T11:36:03;9.33;;;6.20;;
14554;SDS011;7364;50.870;4.722;2023-12-07T11:38:32;8.83;;;5.97;;
14554;SDS011;7364;50.870;4.722;2023-12-07T11:41:01;7.93;;;5.83;;
14554;SDS011;7364;50.870;4.722;2023-12-07T11:43:41;9.20;;;6.00;;
14554;SDS011;7364;50.870;4.722;2023-12-07T11:46:11;11.23;;;5.43;;
14554;SDS011;7364;50.870;4.722;2023-12-07T11:48:46;7.10;;;5.00;;
14554;SDS011;7364;50.870;4.722;2023-12-07T11:51:15;10.30;;;6.17;;
14554;SDS011;7364;50.870;4.722;2023-12-07T11:53:43;8.57;;;5.97;;
14554;SDS011;7364;50.870;4.722;2023-12-07T11:56:11;10.80;;;5.77;;
14554;SDS011;7364;50.870;4.722;2023-12-07T11:58:39;7.03;;;5.23;;
14554;SDS011;7364;50.870;4.722;2023-12-07T12:01:06;9.30;;;6.73;;
14554;SDS011;7364;50.870;4.722;2023-12-07T12:03:33;9.23;;;5.97;;
14554;SDS011;7364;50.870;4.722;2023-12-07T12:06:02;9.10;;;6.20;;
14554;SDS011;7364;50.870;4.722;2023-12-07T12:08:31;9.03;;;5.53;;
14554;SDS011;7364;50.870;4.722;2023-12-07T12:10:58;6.93;;;5.27;;
14554;SDS011;7364;50.870;4.722;2023-12-07T12:13:28;7.67;;;6.07;;
14554;SDS011;7364;50.870;4.722;2023-12-07T12:15:55;10.07;;;6.10;;
14554;SDS011;7364;50.870;4.722;2023-12-07T12:18:23;10.90;;;6.20;;
14554;SDS011;7364;50.870;4.722;2023-12-07T12:20:51;9.87;;;5.93;;
14554;SDS011;7364;50.870;4.722;2023-12-07T12:23:19;9.67;;;5.23;;
14554;SDS011;7364;50.870;4.722;2023-12-07T12:25:47;7.53;;;5.83;;
14554;SDS011;7364;50.870;4.722;2023-12-07T12:28:15;7.60;;;5.43;;
14554;SDS011;7364;50.870;4.722;2023-12-07T12:30:45;8.77;;;6.00;;
14554;SDS011;7364;50.870;4.722;2023-12-07T12:33:13;9.63;;;6.23;;
14554;SDS011;7364;50.870;4.722;2023-12-07T12:35:41;11.73;;;6.40;;
14554;SDS011;7364;50.870;4.722;2023-12-07T12:38:11;13.27;;;6.73;;
14554;SDS011;7364;50.870;4.722;2023-12-07T12:40:39;10.07;;;7.00;;
14554;SDS011;7364;50.870;4.722;2023-12-07T12:43:08;8.07;;;6.60;;
14554;SDS011;7364;50.870;4.722;2023-12-07T12:45:36;9.10;;;6.83;;
14554;SDS011;7364;50.870;4.722;2023-12-07T12:48:04;8.10;;;6.00;;
14554;SDS011;7364;50.870;4.722;2023-12-07T12:50:33;9.77;;;6.67;;
14554;SDS011;7364;50.870;4.722;2023-12-07T12:53:02;8.40;;;6.13;;
14554;SDS011;7364;50.870;4.722;2023-12-07T12:55:32;7.33;;;5.30;;
14554;SDS011;7364;50.870;4.722;2023-12-07T12:58:01;9.87;;;6.07;;
14554;SDS011;7364;50.870;4.722;2023-12-07T13:00:29;10.17;;;6.93;;
14554;SDS011;7364;50.870;4.722;2023-12-07T13:02:58;11.70;;;6.30;;
14554;SDS011;7364;50.870;4.722;2023-12-07T13:05:26;9.90;;;6.00;;
14554;SDS011;7364;50.870;4.722;2023-12-07T13:07:54;10.40;;;6.23;;
14554;SDS011;7364;50.870;4.722;2023-12-07T13:10:22;9.17;;;6.13;;
14554;SDS011;7364;50.870;4.722;2023-12-07T13:12:49;7.60;;;5.70;;
14554;SDS011;7364;50.870;4.722;2023-12-07T13:15:16;8.67;;;6.00;;
14554;SDS011;7364;50.870;4.722;2023-12-07T13:17:43;12.63;;;6.77;;
14554;SDS011;7364;50.870;4.722;2023-12-07T13:20:11;15.17;;;7.77;;
14554;SDS011;7364;50.870;4.722;2023-12-07T13:22:41;9.87;;;6.27;;
14554;SDS011;7364;50.870;4.722;2023-12-07T13:25:08;12.57;;;6.27;;
14554;SDS011;7364;50.870;4.722;2023-12-07T13:27:37;8.33;;;5.47;;
14554;SDS011;7364;50.870;4.722;2023-12-07T13:30:05;11.27;;;7.10;;
14554;SDS011;7364;50.870;4.722;2023-12-07T13:32:34;9.00;;;6.40;;
14554;SDS011;7364;50.870;4.722;2023-12-07T13:35:03;9.67;;;5.33;;
14554;SDS011;7364;50.870;4.722;2023-12-07T13:37:31;11.00;;;5.80;;
14554;SDS011;7364;50.870;4.722;2023-12-07T13:40:00;10.43;;;7.20;;
14554;SDS011;7364;50.870;4.722;2023-12-07T13:42:30;11.93;;;6.23;;
14554;SDS011;7364;50.870;4.722;2023-12-07T13:44:58;9.27;;;5.50;;
14554;SDS011;7364;50.870;4.722;2023-12-07T13:47:25;8.37;;;5.87;;
14554;SDS011;7364;50.870;4.722;2023-12-07T13:49:56;7.03;;;5.60;;
14554;SDS011;7364;50.870;4.722;2023-12-07T13:52:24;9.37;;;6.10;;
14554;SDS011;7364;50.870;4.722;2023-12-07T13:54:52;8.77;;;5.77;;
14554;SDS011;7364;50.870;4.722;2023-12-07T13:57:21;6.87;;;5.33;;
14554;SDS011;7364;50.870;4.722;2023-12-07T13:59:49;6.77;;;5.07;;
14554;SDS011;7364;50.870;4.722;2023-12-07T14:02:16;10.07;;;5.97;;
14554;SDS011;7364;50.870;4.722;2023-12-07T14:04:44;7.67;;;5.40;;
14554;SDS011;7364;50.870;4.722;2023-12-07T14:07:15;7.30;;;5.60;;
14554;SDS011;7364;50.870;4.722;2023-12-07T14:09:43;8.20;;;5.73;;
14554;SDS011;7364;50.870;4.722;2023-12-07T14:12:11;8.47;;;5.70;;
14554;SDS011;7364;50.870;4.722;2023-12-07T14:14:41;10.77;;;5.83;;
14554;SDS011;7364;50.870;4.722;2023-12-07T14:17:08;8.07;;;5.50;;
14554;SDS011;7364;50.870;4.722;2023-12-07T14:19:36;8.63;;;5.57;;
14554;SDS011;7364;50.870;4.722;2023-12-07T14:22:03;9.73;;;6.60;;
14554;SDS011;7364;50.870;4.722;2023-12-07T14:24:30;6.50;;;5.23;;
14554;SDS011;7364;50.870;4.722;2023-12-07T14:26:58;10.73;;;6.00;;
14554;SDS011;7364;50.870;4.722;2023-12-07T14:29:25;8.77;;;6.17;;
14554;SDS011;7364;50.870;4.722;2023-12-07T14:31:54;7.30;;;5.47;;
14554;SDS011;7364;50.870;4.722;2023-12-07T14:34:21;7.07;;;5.03;;
14554;SDS011;7364;50.870;4.722;2023-12-07T14:36:49;9.23;;;6.23;;
14554;SDS011;7364;50.870;4.722;2023-12-07T14:39:16;7.53;;;6.10;;
14554;SDS011;7364;50.870;4.722;2023-12-07T14:41:44;10.27;;;6.33;;
14554;SDS011;7364;50.870;4.722;2023-12-07T14:44:13;11.27;;;7.60;;
14554;SDS011;7364;50.870;4.722;2023-12-07T14:46:41;12.90;;;9.67;;
14554;SDS011;7364;50.870;4.722;2023-12-07T14:49:11;18.53;;;10.97;;